sensor_id;sensor_type;location;lat;lon;timestamp;temperature;humidity
78289;DHT22;67539;48.752;12.922;2023-04-03T00:00:49;4.40;92.90
78289;DHT22;67539;48.752;12.922;2023-04-03T00:03:18;4.40;92.60
78289;DHT22;67539;48.752;12.922;2023-04-03T00:05:46;4.40;92.70
78289;DHT22;67539;48.752;12.922;2023-04-03T00:08:14;4.30;92.80
78289;DHT22;67539;48.752;12.922;2023-04-03T00:10:42;4.30;92.70
78289;DHT22;67539;48.752;12.922;2023-04-03T00:13:10;4.30;93.00
78289;DHT22;67539;48.752;12.922;2023-04-03T00:15:39;4.40;92.40
78289;DHT22;67539;48.752;12.922;2023-04-03T00:18:09;4.40;93.00
78289;DHT22;67539;48.752;12.922;2023-04-03T00:20:37;4.40;92.70
78289;DHT22;67539;48.752;12.922;2023-04-03T00:23:05;4.40;92.90
78289;DHT22;67539;48.752;12.922;2023-04-03T00:25:33;4.40;93.30
78289;DHT22;67539;48.752;12.922;2023-04-03T00:28:02;4.30;93.30
78289;DHT22;67539;48.752;12.922;2023-04-03T00:30:31;4.30;93.60
78289;DHT22;67539;48.752;12.922;2023-04-03T00:32:59;4.30;93.90
78289;DHT22;67539;48.752;12.922;2023-04-03T00:35:30;4.40;93.40
78289;DHT22;67539;48.752;12.922;2023-04-03T00:37:58;4.40;93.60
78289;DHT22;67539;48.752;12.922;2023-04-03T00:40:27;4.40;93.40
78289;DHT22;67539;48.752;12.922;2023-04-03T00:42:58;4.30;93.70
78289;DHT22;67539;48.752;12.922;2023-04-03T00:45:31;4.40;94.20
78289;DHT22;67539;48.752;12.922;2023-04-03T00:48:01;4.40;93.60
78289;DHT22;67539;48.752;12.922;2023-04-03T00:50:35;4.40;93.70
78289;DHT22;67539;48.752;12.922;2023-04-03T00:53:06;4.40;93.90
78289;DHT22;67539;48.752;12.922;2023-04-03T00:55:38;4.40;93.90
78289;DHT22;67539;48.752;12.922;2023-04-03T00:58:06;4.40;93.70
78289;DHT22;67539;48.752;12.922;2023-04-03T01:00:37;4.40;93.60
78289;DHT22;67539;48.752;12.922;2023-04-03T01:03:06;4.40;93.40
78289;DHT22;67539;48.752;12.922;2023-04-03T01:05:37;4.40;93.40
78289;DHT22;67539;48.752;12.922;2023-04-03T01:08:06;4.40;93.20
78289;DHT22;67539;48.752;12.922;2023-04-03T01:10:34;4.40;93.10
78289;DHT22;67539;48.752;12.922;2023-04-03T01:13:18;4.40;93.20
78289;DHT22;67539;48.752;12.922;2023-04-03T01:15:46;4.40;93.30
78289;DHT22;67539;48.752;12.922;2023-04-03T01:18:14;4.40;93.20
78289;DHT22;67539;48.752;12.922;2023-04-03T01:21:16;4.30;93.40
78289;DHT22;67539;48.752;12.922;2023-04-03T01:24:04;4.30;93.50
78289;DHT22;67539;48.752;12.922;2023-04-03T01:26:36;4.40;93.80
78289;DHT22;67539;48.752;12.922;2023-04-03T01:29:04;4.30;93.80
78289;DHT22;67539;48.752;12.922;2023-04-03T01:31:46;4.40;93.90
78289;DHT22;67539;48.752;12.922;2023-04-03T01:34:14;4.40;94.00
78289;DHT22;67539;48.752;12.922;2023-04-03T01:36:42;4.40;94.00
78289;DHT22;67539;48.752;12.922;2023-04-03T01:39:10;4.40;94.00
78289;DHT22;67539;48.752;12.922;2023-04-03T01:41:39;4.40;94.00
78289;DHT22;67539;48.752;12.922;2023-04-03T01:44:12;4.50;94.20
78289;DHT22;67539;48.752;12.922;2023-04-03T01:46:42;4.50;94.40
78289;DHT22;67539;48.752;12.922;2023-04-03T01:49:10;4.50;94.40
78289;DHT22;67539;48.752;12.922;2023-04-03T01:51:38;4.50;94.30
78289;DHT22;67539;48.752;12.922;2023-04-03T01:54:06;4.50;94.50
78289;DHT22;67539;48.752;12.922;2023-04-03T01:56:34;4.50;94.70
78289;DHT22;67539;48.752;12.922;2023-04-03T01:59:02;4.50;94.20
78289;DHT22;67539;48.752;12.922;2023-04-03T02:01:30;4.60;94.40
78289;DHT22;67539;48.752;12.922;2023-04-03T02:04:00;4.60;94.30
78289;DHT22;67539;48.752;12.922;2023-04-03T02:06:28;4.50;93.40
78289;DHT22;67539;48.752;12.922;2023-04-03T02:08:56;4.50;93.10
78289;DHT22;67539;48.752;12.922;2023-04-03T02:11:24;4.50;93.40
78289;DHT22;67539;48.752;12.922;2023-04-03T02:13:52;4.50;93.30
78289;DHT22;67539;48.752;12.922;2023-04-03T02:16:20;4.50;93.70
78289;DHT22;67539;48.752;12.922;2023-04-03T02:18:48;4.50;93.40
78289;DHT22;67539;48.752;12.922;2023-04-03T02:21:18;4.50;93.50
78289;DHT22;67539;48.752;12.922;2023-04-03T02:23:47;4.40;92.80
78289;DHT22;67539;48.752;12.922;2023-04-03T02:26:16;4.40;93.00
78289;DHT22;67539;48.752;12.922;2023-04-03T02:28:45;4.40;92.50
78289;DHT22;67539;48.752;12.922;2023-04-03T02:31:13;4.40;92.70
78289;DHT22;67539;48.752;12.922;2023-04-03T02:33:43;4.40;93.00
78289;DHT22;67539;48.752;12.922;2023-04-03T02:36:14;4.40;93.00
78289;DHT22;67539;48.752;12.922;2023-04-03T02:38:48;4.40;92.80
78289;DHT22;67539;48.752;12.922;2023-04-03T02:41:16;4.30;92.90
78289;DHT22;67539;48.752;12.922;2023-04-03T02:43:44;4.30;92.40
78289;DHT22;67539;48.752;12.922;2023-04-03T02:46:12;4.30;92.40
78289;DHT22;67539;48.752;12.922;2023-04-03T02:48:42;4.30;92.50
78289;DHT22;67539;48.752;12.922;2023-04-03T02:51:10;4.30;92.70
78289;DHT22;67539;48.752;12.922;2023-04-03T02:53:38;4.20;93.10
78289;DHT22;67539;48.752;12.922;2023-04-03T02:56:15;4.10;93.40
78289;DHT22;67539;48.752;12.922;2023-04-03T02:58:44;4.10;93.40
78289;DHT22;67539;48.752;12.922;2023-04-03T03:01:12;4.10;93.30
78289;DHT22;67539;48.752;12.922;2023-04-03T03:03:40;4.10;93.50
78289;DHT22;67539;48.752;12.922;2023-04-03T03:06:10;4.10;93.30
78289;DHT22;67539;48.752;12.922;2023-04-03T03:08:40;4.10;93.10
78289;DHT22;67539;48.752;12.922;2023-04-03T03:11:09;4.10;93.20
78289;DHT22;67539;48.752;12.922;2023-04-03T03:13:38;4.10;93.20
78289;DHT22;67539;48.752;12.922;2023-04-03T03:16:07;4.10;93.10
78289;DHT22;67539;48.752;12.922;2023-04-03T03:18:35;4.10;93.30
78289;DHT22;67539;48.752;12.922;2023-04-03T03:21:04;4.00;93.30
78289;DHT22;67539;48.752;12.922;2023-04-03T03:23:32;4.00;93.10
78289;DHT22;67539;48.752;12.922;2023-04-03T03:26:02;4.00;93.20
78289;DHT22;67539;48.752;12.922;2023-04-03T03:28:31;3.90;93.20
78289;DHT22;67539;48.752;12.922;2023-04-03T03:31:01;3.90;93.20
78289;DHT22;67539;48.752;12.922;2023-04-03T03:33:31;3.90;93.40
78289;DHT22;67539;48.752;12.922;2023-04-03T03:35:59;3.90;93.40
78289;DHT22;67539;48.752;12.922;2023-04-03T03:38:28;3.90;93.50
78289;DHT22;67539;48.752;12.922;2023-04-03T03:40:58;3.90;93.10
78289;DHT22;67539;48.752;12.922;2023-04-03T03:43:28;3.90;93.50
78289;DHT22;67539;48.752;12.922;2023-04-03T03:45:57;3.90;93.30
78289;DHT22;67539;48.752;12.922;2023-04-03T03:48:27;3.80;93.40
78289;DHT22;67539;48.752;12.922;2023-04-03T03:50:55;3.80;93.10
78289;DHT22;67539;48.752;12.922;2023-04-03T03:53:28;3.80;93.30
78289;DHT22;67539;48.752;12.922;2023-04-03T03:56:00;3.80;93.50
78289;DHT22;67539;48.752;12.922;2023-04-03T03:58:30;3.80;93.80
78289;DHT22;67539;48.752;12.922;2023-04-03T04:01:01;3.80;93.70
78289;DHT22;67539;48.752;12.922;2023-04-03T04:03:32;3.80;94.10
78289;DHT22;67539;48.752;12.922;2023-04-03T04:06:01;3.80;94.20
78289;DHT22;67539;48.752;12.922;2023-04-03T04:08:29;3.80;94.10
78289;DHT22;67539;48.752;12.922;2023-04-03T04:10:57;3.80;94.10
78289;DHT22;67539;48.752;12.922;2023-04-03T04:13:25;3.80;94.10
78289;DHT22;67539;48.752;12.922;2023-04-03T04:15:53;3.70;93.90
78289;DHT22;67539;48.752;12.922;2023-04-03T04:18:21;3.70;93.60
78289;DHT22;67539;48.752;12.922;2023-04-03T04:20:51;3.70;93.90
78289;DHT22;67539;48.752;12.922;2023-04-03T04:23:21;3.70;93.80
78289;DHT22;67539;48.752;12.922;2023-04-03T04:25:50;3.70;93.90
78289;DHT22;67539;48.752;12.922;2023-04-03T04:28:19;3.70;93.90
78289;DHT22;67539;48.752;12.922;2023-04-03T04:30:49;3.70;93.90
78289;DHT22;67539;48.752;12.922;2023-04-03T04:33:18;3.70;94.30
78289;DHT22;67539;48.752;12.922;2023-04-03T04:35:47;3.70;94.40
78289;DHT22;67539;48.752;12.922;2023-04-03T04:38:19;3.70;94.40
78289;DHT22;67539;48.752;12.922;2023-04-03T04:40:48;3.70;94.20
78289;DHT22;67539;48.752;12.922;2023-04-03T04:43:17;3.70;94.10
78289;DHT22;67539;48.752;12.922;2023-04-03T04:45:47;3.70;94.60
78289;DHT22;67539;48.752;12.922;2023-04-03T04:48:18;3.70;94.80
78289;DHT22;67539;48.752;12.922;2023-04-03T04:50:46;3.70;94.80
78289;DHT22;67539;48.752;12.922;2023-04-03T04:53:14;3.70;95.00
78289;DHT22;67539;48.752;12.922;2023-04-03T04:55:43;3.70;95.10
78289;DHT22;67539;48.752;12.922;2023-04-03T04:58:12;3.70;94.80
78289;DHT22;67539;48.752;12.922;2023-04-03T05:00:40;3.80;95.00
78289;DHT22;67539;48.752;12.922;2023-04-03T05:03:10;3.80;95.10
78289;DHT22;67539;48.752;12.922;2023-04-03T05:05:38;3.80;95.20
78289;DHT22;67539;48.752;12.922;2023-04-03T05:08:06;3.70;95.30
78289;DHT22;67539;48.752;12.922;2023-04-03T05:10:38;3.70;95.60
78289;DHT22;67539;48.752;12.922;2023-04-03T05:13:08;3.70;95.50
78289;DHT22;67539;48.752;12.922;2023-04-03T05:15:37;3.70;95.50
78289;DHT22;67539;48.752;12.922;2023-04-03T05:18:05;3.70;95.70
78289;DHT22;67539;48.752;12.922;2023-04-03T05:20:34;3.70;95.40
78289;DHT22;67539;48.752;12.922;2023-04-03T05:23:02;3.70;95.50
78289;DHT22;67539;48.752;12.922;2023-04-03T05:25:33;3.70;95.60
78289;DHT22;67539;48.752;12.922;2023-04-03T05:28:02;3.70;96.00
78289;DHT22;67539;48.752;12.922;2023-04-03T05:30:31;3.70;96.10
78289;DHT22;67539;48.752;12.922;2023-04-03T05:33:02;3.70;96.20
78289;DHT22;67539;48.752;12.922;2023-04-03T05:35:37;3.70;95.90
78289;DHT22;67539;48.752;12.922;2023-04-03T05:38:11;3.60;95.80
78289;DHT22;67539;48.752;12.922;2023-04-03T05:40:40;3.60;95.50
78289;DHT22;67539;48.752;12.922;2023-04-03T05:43:08;3.60;95.80
78289;DHT22;67539;48.752;12.922;2023-04-03T05:45:40;3.60;95.60
78289;DHT22;67539;48.752;12.922;2023-04-03T05:48:11;3.70;95.40
78289;DHT22;67539;48.752;12.922;2023-04-03T05:50:39;3.70;95.60
78289;DHT22;67539;48.752;12.922;2023-04-03T05:53:17;3.70;95.00
78289;DHT22;67539;48.752;12.922;2023-04-03T05:55:46;3.70;94.60
78289;DHT22;67539;48.752;12.922;2023-04-03T05:58:15;3.70;94.20
78289;DHT22;67539;48.752;12.922;2023-04-03T06:00:46;3.80;94.50
78289;DHT22;67539;48.752;12.922;2023-04-03T06:03:15;3.80;94.80
78289;DHT22;67539;48.752;12.922;2023-04-03T06:05:44;3.80;94.90
78289;DHT22;67539;48.752;12.922;2023-04-03T06:08:13;3.80;95.30
78289;DHT22;67539;48.752;12.922;2023-04-03T06:10:41;3.80;95.40
78289;DHT22;67539;48.752;12.922;2023-04-03T06:13:09;3.80;95.40
78289;DHT22;67539;48.752;12.922;2023-04-03T06:15:37;3.90;95.10
78289;DHT22;67539;48.752;12.922;2023-04-03T06:18:09;4.00;95.00
78289;DHT22;67539;48.752;12.922;2023-04-03T06:20:37;4.00;94.70
78289;DHT22;67539;48.752;12.922;2023-04-03T06:23:06;4.10;94.80
78289;DHT22;67539;48.752;12.922;2023-04-03T06:25:34;4.10;95.10
78289;DHT22;67539;48.752;12.922;2023-04-03T06:28:02;4.20;95.30
78289;DHT22;67539;48.752;12.922;2023-04-03T06:30:30;4.30;95.30
78289;DHT22;67539;48.752;12.922;2023-04-03T06:32:58;4.30;95.20
78289;DHT22;67539;48.752;12.922;2023-04-03T06:35:28;4.40;94.90
78289;DHT22;67539;48.752;12.922;2023-04-03T06:37:57;4.40;94.60
78289;DHT22;67539;48.752;12.922;2023-04-03T06:40:25;4.40;94.40
78289;DHT22;67539;48.752;12.922;2023-04-03T06:42:53;4.40;94.60
78289;DHT22;67539;48.752;12.922;2023-04-03T06:45:21;4.50;94.60
78289;DHT22;67539;48.752;12.922;2023-04-03T06:47:52;4.50;94.30
78289;DHT22;67539;48.752;12.922;2023-04-03T06:50:20;4.50;94.10
78289;DHT22;67539;48.752;12.922;2023-04-03T06:52:49;4.50;94.40
78289;DHT22;67539;48.752;12.922;2023-04-03T06:55:17;4.40;94.50
78289;DHT22;67539;48.752;12.922;2023-04-03T06:57:45;4.50;94.20
78289;DHT22;67539;48.752;12.922;2023-04-03T07:00:16;4.50;94.50
78289;DHT22;67539;48.752;12.922;2023-04-03T07:02:44;4.50;93.90
78289;DHT22;67539;48.752;12.922;2023-04-03T07:05:12;4.40;94.50
78289;DHT22;67539;48.752;12.922;2023-04-03T07:07:40;4.50;94.70
78289;DHT22;67539;48.752;12.922;2023-04-03T07:10:09;4.50;94.80
78289;DHT22;67539;48.752;12.922;2023-04-03T07:12:37;4.60;94.60
78289;DHT22;67539;48.752;12.922;2023-04-03T07:15:07;4.70;94.80
78289;DHT22;67539;48.752;12.922;2023-04-03T07:17:35;4.80;94.20
78289;DHT22;67539;48.752;12.922;2023-04-03T07:20:04;4.90;93.10
78289;DHT22;67539;48.752;12.922;2023-04-03T07:22:32;4.90;93.10
78289;DHT22;67539;48.752;12.922;2023-04-03T07:25:01;5.00;92.40
78289;DHT22;67539;48.752;12.922;2023-04-03T07:27:30;5.10;92.30
78289;DHT22;67539;48.752;12.922;2023-04-03T07:29:58;5.10;92.20
78289;DHT22;67539;48.752;12.922;2023-04-03T07:32:26;5.10;92.40
78289;DHT22;67539;48.752;12.922;2023-04-03T07:34:54;5.20;92.60
78289;DHT22;67539;48.752;12.922;2023-04-03T07:37:22;5.30;90.90
78289;DHT22;67539;48.752;12.922;2023-04-03T07:39:50;5.40;91.10
78289;DHT22;67539;48.752;12.922;2023-04-03T07:42:18;5.50;90.00
78289;DHT22;67539;48.752;12.922;2023-04-03T07:44:48;5.60;88.10
78289;DHT22;67539;48.752;12.922;2023-04-03T07:47:16;5.60;87.10
78289;DHT22;67539;48.752;12.922;2023-04-03T07:49:44;5.70;87.10
78289;DHT22;67539;48.752;12.922;2023-04-03T07:52:12;5.70;84.70
78289;DHT22;67539;48.752;12.922;2023-04-03T07:54:41;5.80;84.50
78289;DHT22;67539;48.752;12.922;2023-04-03T07:57:09;5.80;87.00
78289;DHT22;67539;48.752;12.922;2023-04-03T07:59:37;6.00;86.20
78289;DHT22;67539;48.752;12.922;2023-04-03T08:02:09;6.10;85.00
78289;DHT22;67539;48.752;12.922;2023-04-03T08:04:37;6.20;80.80
78289;DHT22;67539;48.752;12.922;2023-04-03T08:07:05;6.30;80.50
78289;DHT22;67539;48.752;12.922;2023-04-03T08:09:33;6.30;78.80
78289;DHT22;67539;48.752;12.922;2023-04-03T08:12:01;6.50;81.40
78289;DHT22;67539;48.752;12.922;2023-04-03T08:14:30;6.50;80.90
78289;DHT22;67539;48.752;12.922;2023-04-03T08:17:01;6.50;77.60
78289;DHT22;67539;48.752;12.922;2023-04-03T08:19:32;6.60;78.50
78289;DHT22;67539;48.752;12.922;2023-04-03T08:22:00;6.70;76.40
78289;DHT22;67539;48.752;12.922;2023-04-03T08:24:29;6.70;76.10
78289;DHT22;67539;48.752;12.922;2023-04-03T08:26:57;6.70;70.40
78289;DHT22;67539;48.752;12.922;2023-04-03T08:29:26;6.60;70.70
78289;DHT22;67539;48.752;12.922;2023-04-03T08:31:54;6.70;70.30
78289;DHT22;67539;48.752;12.922;2023-04-03T08:34:22;6.60;70.40
78289;DHT22;67539;48.752;12.922;2023-04-03T08:36:51;6.70;72.40
78289;DHT22;67539;48.752;12.922;2023-04-03T08:39:19;6.70;70.80
78289;DHT22;67539;48.752;12.922;2023-04-03T08:41:48;6.70;67.10
78289;DHT22;67539;48.752;12.922;2023-04-03T08:44:23;6.60;66.10
78289;DHT22;67539;48.752;12.922;2023-04-03T08:47:00;6.60;64.90
78289;DHT22;67539;48.752;12.922;2023-04-03T08:49:32;6.50;64.20
78289;DHT22;67539;48.752;12.922;2023-04-03T08:52:04;6.40;64.40
78289;DHT22;67539;48.752;12.922;2023-04-03T08:54:37;6.50;64.60
78289;DHT22;67539;48.752;12.922;2023-04-03T08:57:11;6.50;62.90
78289;DHT22;67539;48.752;12.922;2023-04-03T08:59:40;6.60;63.60
78289;DHT22;67539;48.752;12.922;2023-04-03T09:02:24;6.60;64.50
78289;DHT22;67539;48.752;12.922;2023-04-03T09:04:54;6.60;63.40
78289;DHT22;67539;48.752;12.922;2023-04-03T09:07:30;6.60;61.40
78289;DHT22;67539;48.752;12.922;2023-04-03T09:10:00;6.60;56.50
78289;DHT22;67539;48.752;12.922;2023-04-03T09:12:36;6.60;59.80
78289;DHT22;67539;48.752;12.922;2023-04-03T09:15:13;6.60;56.30
78289;DHT22;67539;48.752;12.922;2023-04-03T09:17:59;6.40;57.10
78289;DHT22;67539;48.752;12.922;2023-04-03T09:20:36;6.50;59.10
78289;DHT22;67539;48.752;12.922;2023-04-03T09:23:15;6.50;58.20
78289;DHT22;67539;48.752;12.922;2023-04-03T09:25:45;6.60;61.20
78289;DHT22;67539;48.752;12.922;2023-04-03T09:28:13;6.70;57.50
78289;DHT22;67539;48.752;12.922;2023-04-03T09:30:41;6.70;58.50
78289;DHT22;67539;48.752;12.922;2023-04-03T09:33:10;6.50;58.10
78289;DHT22;67539;48.752;12.922;2023-04-03T09:35:40;6.30;58.20
78289;DHT22;67539;48.752;12.922;2023-04-03T09:38:19;6.20;56.50
78289;DHT22;67539;48.752;12.922;2023-04-03T09:40:48;6.10;56.70
78289;DHT22;67539;48.752;12.922;2023-04-03T09:43:24;6.00;57.70
78289;DHT22;67539;48.752;12.922;2023-04-03T09:45:53;6.10;60.10
78289;DHT22;67539;48.752;12.922;2023-04-03T09:48:23;6.20;61.80
78289;DHT22;67539;48.752;12.922;2023-04-03T09:50:57;6.40;61.60
78289;DHT22;67539;48.752;12.922;2023-04-03T09:53:30;6.40;57.60
78289;DHT22;67539;48.752;12.922;2023-04-03T09:55:59;6.30;58.90
78289;DHT22;67539;48.752;12.922;2023-04-03T09:58:31;6.20;55.70
78289;DHT22;67539;48.752;12.922;2023-04-03T10:01:25;6.20;56.70
78289;DHT22;67539;48.752;12.922;2023-04-03T10:04:09;6.20;59.40
78289;DHT22;67539;48.752;12.922;2023-04-03T10:06:39;6.10;56.70
78289;DHT22;67539;48.752;12.922;2023-04-03T10:09:20;6.10;56.80
78289;DHT22;67539;48.752;12.922;2023-04-03T10:12:03;6.10;59.10
78289;DHT22;67539;48.752;12.922;2023-04-03T10:14:33;6.10;55.60
78289;DHT22;67539;48.752;12.922;2023-04-03T10:17:10;6.20;57.60
78289;DHT22;67539;48.752;12.922;2023-04-03T10:19:44;6.30;58.70
78289;DHT22;67539;48.752;12.922;2023-04-03T10:22:21;6.40;57.10
78289;DHT22;67539;48.752;12.922;2023-04-03T10:25:03;6.40;55.70
78289;DHT22;67539;48.752;12.922;2023-04-03T10:27:38;6.50;57.50
78289;DHT22;67539;48.752;12.922;2023-04-03T10:30:22;6.50;55.90
78289;DHT22;67539;48.752;12.922;2023-04-03T10:33:05;6.40;54.90
78289;DHT22;67539;48.752;12.922;2023-04-03T10:35:44;6.50;57.30
78289;DHT22;67539;48.752;12.922;2023-04-03T10:38:20;6.60;57.70
78289;DHT22;67539;48.752;12.922;2023-04-03T10:40:57;6.70;58.10
78289;DHT22;67539;48.752;12.922;2023-04-03T10:43:33;6.70;54.00
78289;DHT22;67539;48.752;12.922;2023-04-03T10:46:07;6.70;57.40
78289;DHT22;67539;48.752;12.922;2023-04-03T10:48:49;6.80;57.40
78289;DHT22;67539;48.752;12.922;2023-04-03T10:51:25;6.90;54.30
78289;DHT22;67539;48.752;12.922;2023-04-03T10:53:59;7.00;54.60
78289;DHT22;67539;48.752;12.922;2023-04-03T10:56:37;7.00;53.60
78289;DHT22;67539;48.752;12.922;2023-04-03T10:59:18;6.90;52.10
78289;DHT22;67539;48.752;12.922;2023-04-03T11:01:52;6.90;52.00
78289;DHT22;67539;48.752;12.922;2023-04-03T11:04:23;7.00;57.00
78289;DHT22;67539;48.752;12.922;2023-04-03T11:06:58;7.20;51.90
78289;DHT22;67539;48.752;12.922;2023-04-03T11:09:29;7.30;56.90
78289;DHT22;67539;48.752;12.922;2023-04-03T11:12:03;7.50;55.40
78289;DHT22;67539;48.752;12.922;2023-04-03T11:14:33;7.60;57.30
78289;DHT22;67539;48.752;12.922;2023-04-03T11:17:09;7.80;56.90
78289;DHT22;67539;48.752;12.922;2023-04-03T11:19:42;8.00;59.60
78289;DHT22;67539;48.752;12.922;2023-04-03T11:22:17;8.10;56.10
78289;DHT22;67539;48.752;12.922;2023-04-03T11:24:57;8.20;54.30
78289;DHT22;67539;48.752;12.922;2023-04-03T11:27:33;8.30;56.30
78289;DHT22;67539;48.752;12.922;2023-04-03T11:30:06;8.50;54.60
78289;DHT22;67539;48.752;12.922;2023-04-03T11:32:56;8.60;54.80
78289;DHT22;67539;48.752;12.922;2023-04-03T11:35:27;8.70;54.60
78289;DHT22;67539;48.752;12.922;2023-04-03T11:37:57;8.80;53.00
78289;DHT22;67539;48.752;12.922;2023-04-03T11:40:29;8.70;48.90
78289;DHT22;67539;48.752;12.922;2023-04-03T11:43:06;8.50;52.00
78289;DHT22;67539;48.752;12.922;2023-04-03T11:45:37;8.50;53.90
78289;DHT22;67539;48.752;12.922;2023-04-03T11:48:41;8.50;54.40
78289;DHT22;67539;48.752;12.922;2023-04-03T11:51:41;8.60;53.00
78289;DHT22;67539;48.752;12.922;2023-04-03T11:54:46;8.60;55.30
78289;DHT22;67539;48.752;12.922;2023-04-03T11:57:43;8.40;51.60
78289;DHT22;67539;48.752;12.922;2023-04-03T12:00:52;8.00;50.20
78289;DHT22;67539;48.752;12.922;2023-04-03T12:03:35;7.50;49.30
78289;DHT22;67539;48.752;12.922;2023-04-03T12:07:00;7.40;51.00
78289;DHT22;67539;48.752;12.922;2023-04-03T12:09:57;7.40;53.10
78289;DHT22;67539;48.752;12.922;2023-04-03T12:12:32;7.60;53.70
78289;DHT22;67539;48.752;12.922;2023-04-03T12:21:19;8.20;56.30
78289;DHT22;67539;48.752;12.922;2023-04-03T12:24:15;8.50;55.40
78289;DHT22;67539;48.752;12.922;2023-04-03T12:27:00;8.70;53.80
78289;DHT22;67539;48.752;12.922;2023-04-03T12:29:36;8.80;53.30
78289;DHT22;67539;48.752;12.922;2023-04-03T12:32:15;8.90;54.50
78289;DHT22;67539;48.752;12.922;2023-04-03T12:35:01;8.90;52.70
78289;DHT22;67539;48.752;12.922;2023-04-03T12:38:14;8.90;55.20
78289;DHT22;67539;48.752;12.922;2023-04-03T12:40:48;8.90;54.50
78289;DHT22;67539;48.752;12.922;2023-04-03T12:43:43;8.90;52.10
78289;DHT22;67539;48.752;12.922;2023-04-03T12:46:17;8.70;50.00
78289;DHT22;67539;48.752;12.922;2023-04-03T12:48:48;8.50;48.60
78289;DHT22;67539;48.752;12.922;2023-04-03T12:51:20;8.30;50.70
78289;DHT22;67539;48.752;12.922;2023-04-03T12:53:52;8.30;51.90
78289;DHT22;67539;48.752;12.922;2023-04-03T12:56:24;8.40;54.30
78289;DHT22;67539;48.752;12.922;2023-04-03T12:58:54;8.50;54.50
78289;DHT22;67539;48.752;12.922;2023-04-03T13:01:24;8.50;50.50
78289;DHT22;67539;48.752;12.922;2023-04-03T13:03:54;8.10;49.00
78289;DHT22;67539;48.752;12.922;2023-04-03T13:06:26;7.80;50.90
78289;DHT22;67539;48.752;12.922;2023-04-03T13:08:58;7.70;51.80
78289;DHT22;67539;48.752;12.922;2023-04-03T13:11:30;7.80;52.20
78289;DHT22;67539;48.752;12.922;2023-04-03T13:14:01;7.80;51.70
78289;DHT22;67539;48.752;12.922;2023-04-03T13:16:30;7.70;52.60
78289;DHT22;67539;48.752;12.922;2023-04-03T13:18:59;7.70;51.60
78289;DHT22;67539;48.752;12.922;2023-04-03T13:21:29;7.70;51.20
78289;DHT22;67539;48.752;12.922;2023-04-03T13:24:01;7.60;50.60
78289;DHT22;67539;48.752;12.922;2023-04-03T13:26:41;7.70;53.10
78289;DHT22;67539;48.752;12.922;2023-04-03T13:29:21;7.80;51.90
78289;DHT22;67539;48.752;12.922;2023-04-03T13:31:57;7.90;48.60
78289;DHT22;67539;48.752;12.922;2023-04-03T13:34:27;8.10;52.90
78289;DHT22;67539;48.752;12.922;2023-04-03T13:36:58;8.50;53.40
78289;DHT22;67539;48.752;12.922;2023-04-03T13:39:29;8.50;51.40
78289;DHT22;67539;48.752;12.922;2023-04-03T13:41:59;8.30;50.90
78289;DHT22;67539;48.752;12.922;2023-04-03T13:44:32;8.20;49.90
78289;DHT22;67539;48.752;12.922;2023-04-03T13:47:15;8.50;52.80
78289;DHT22;67539;48.752;12.922;2023-04-03T13:49:45;9.60;51.90
78289;DHT22;67539;48.752;12.922;2023-04-03T13:52:26;10.80;50.40
78289;DHT22;67539;48.752;12.922;2023-04-03T13:55:01;12.00;48.00
78289;DHT22;67539;48.752;12.922;2023-04-03T13:57:34;12.90;44.40
78289;DHT22;67539;48.752;12.922;2023-04-03T14:00:21;13.30;43.40
78289;DHT22;67539;48.752;12.922;2023-04-03T14:02:54;13.70;42.40
78289;DHT22;67539;48.752;12.922;2023-04-03T14:05:24;13.90;42.50
78289;DHT22;67539;48.752;12.922;2023-04-03T14:07:53;14.20;42.20
78289;DHT22;67539;48.752;12.922;2023-04-03T14:10:23;14.60;43.20
78289;DHT22;67539;48.752;12.922;2023-04-03T14:12:52;15.20;41.80
78289;DHT22;67539;48.752;12.922;2023-04-03T14:15:23;15.50;40.10
78289;DHT22;67539;48.752;12.922;2023-04-03T14:17:51;16.10;39.70
78289;DHT22;67539;48.752;12.922;2023-04-03T14:20:23;16.70;39.00
78289;DHT22;67539;48.752;12.922;2023-04-03T14:22:53;16.60;38.10
78289;DHT22;67539;48.752;12.922;2023-04-03T14:25:22;16.40;38.40
78289;DHT22;67539;48.752;12.922;2023-04-03T14:27:53;16.10;37.80
78289;DHT22;67539;48.752;12.922;2023-04-03T14:30:23;15.20;37.30
78289;DHT22;67539;48.752;12.922;2023-04-03T14:32:52;14.40;38.10
78289;DHT22;67539;48.752;12.922;2023-04-03T14:35:21;13.60;39.30
78289;DHT22;67539;48.752;12.922;2023-04-03T14:37:51;12.80;40.40
78289;DHT22;67539;48.752;12.922;2023-04-03T14:40:22;13.00;42.60
78289;DHT22;67539;48.752;12.922;2023-04-03T14:42:52;13.80;41.90
78289;DHT22;67539;48.752;12.922;2023-04-03T14:45:23;14.70;40.40
78289;DHT22;67539;48.752;12.922;2023-04-03T14:47:53;15.10;41.00
78289;DHT22;67539;48.752;12.922;2023-04-03T14:50:23;15.20;39.60
78289;DHT22;67539;48.752;12.922;2023-04-03T14:52:54;14.50;38.30
78289;DHT22;67539;48.752;12.922;2023-04-03T14:55:24;13.70;39.10
78289;DHT22;67539;48.752;12.922;2023-04-03T14:57:53;13.10;39.30
78289;DHT22;67539;48.752;12.922;2023-04-03T15:00:22;12.50;41.40
78289;DHT22;67539;48.752;12.922;2023-04-03T15:02:50;12.10;41.70
78289;DHT22;67539;48.752;12.922;2023-04-03T15:05:19;11.50;42.10
78289;DHT22;67539;48.752;12.922;2023-04-03T15:07:49;11.30;42.80
78289;DHT22;67539;48.752;12.922;2023-04-03T15:10:20;10.90;42.80
78289;DHT22;67539;48.752;12.922;2023-04-03T15:12:51;10.70;43.60
78289;DHT22;67539;48.752;12.922;2023-04-03T15:15:22;10.90;43.70
78289;DHT22;67539;48.752;12.922;2023-04-03T15:17:51;11.10;44.60
78289;DHT22;67539;48.752;12.922;2023-04-03T15:20:22;11.30;43.60
78289;DHT22;67539;48.752;12.922;2023-04-03T15:22:50;11.20;44.00
78289;DHT22;67539;48.752;12.922;2023-04-03T15:25:18;11.00;43.30
78289;DHT22;67539;48.752;12.922;2023-04-03T15:27:46;10.60;44.10
78289;DHT22;67539;48.752;12.922;2023-04-03T15:30:16;10.30;43.70
78289;DHT22;67539;48.752;12.922;2023-04-03T15:32:46;9.90;43.40
78289;DHT22;67539;48.752;12.922;2023-04-03T15:35:15;9.50;45.00
78289;DHT22;67539;48.752;12.922;2023-04-03T15:37:43;9.10;45.50
78289;DHT22;67539;48.752;12.922;2023-04-03T15:40:11;8.70;46.10
78289;DHT22;67539;48.752;12.922;2023-04-03T15:42:39;8.40;45.50
78289;DHT22;67539;48.752;12.922;2023-04-03T15:45:08;8.20;47.20
78289;DHT22;67539;48.752;12.922;2023-04-03T15:47:36;8.00;46.90
78289;DHT22;67539;48.752;12.922;2023-04-03T15:50:07;7.90;47.40
78289;DHT22;67539;48.752;12.922;2023-04-03T15:52:36;7.80;47.50
78289;DHT22;67539;48.752;12.922;2023-04-03T15:55:05;7.80;47.30
78289;DHT22;67539;48.752;12.922;2023-04-03T15:57:33;7.60;46.50
78289;DHT22;67539;48.752;12.922;2023-04-03T16:00:01;7.50;48.40
78289;DHT22;67539;48.752;12.922;2023-04-03T16:02:33;7.40;47.90
78289;DHT22;67539;48.752;12.922;2023-04-03T16:05:01;7.20;47.80